createdAt,value
2024-05-09T00:03:47.952Z,100.00
2024-05-09T00:09:11.490Z,100.00
2024-05-09T00:14:33.837Z,100.00
2024-05-09T00:19:56.367Z,100.00
2024-05-09T00:25:19.802Z,100.00
2024-05-09T00:30:51.935Z,100.00
2024-05-09T00:36:16.243Z,100.00
2024-05-09T00:41:56.887Z,100.00
2024-05-09T00:47:24.229Z,100.00
2024-05-09T00:58:35.036Z,100.00
2024-05-09T01:04:13.762Z,100.00
2024-05-09T01:09:36.787Z,100.00
2024-05-09T01:15:06.400Z,100.00
2024-05-09T01:20:39.205Z,100.00
2024-05-09T01:31:28.301Z,100.00
2024-05-09T01:36:50.771Z,100.00
2024-05-09T01:42:13.263Z,100.00
2024-05-09T01:47:35.745Z,100.00
2024-05-09T01:53:06.558Z,100.00
2024-05-09T01:58:30.122Z,100.00
2024-05-09T02:03:53.661Z,100.00
2024-05-09T02:09:16.220Z,100.00
2024-05-09T02:14:39.001Z,100.00
2024-05-09T02:20:01.764Z,100.00
2024-05-09T02:25:27.294Z,100.00
2024-05-09T02:30:49.620Z,100.00
2024-05-09T02:36:26.972Z,100.00
2024-05-09T02:42:05.699Z,100.00
2024-05-09T02:47:54.224Z,100.00
2024-05-09T02:53:19.599Z,100.00
2024-05-09T03:04:20.882Z,100.00
2024-05-09T03:09:43.279Z,100.00
2024-05-09T03:15:07.647Z,100.00
2024-05-09T03:20:34.369Z,100.00
2024-05-09T03:25:54.731Z,100.00
2024-05-09T03:31:18.490Z,100.00
2024-05-09T03:36:41.287Z,100.00
2024-05-09T03:42:04.117Z,100.00
2024-05-09T03:47:26.863Z,100.00
2024-05-09T03:52:50.026Z,100.00
2024-05-09T03:58:14.683Z,100.00
2024-05-09T04:09:47.012Z,100.00
2024-05-09T04:15:17.582Z,100.00
2024-05-09T04:20:41.456Z,100.00
2024-05-09T04:26:04.990Z,100.00
2024-05-09T04:31:30.557Z,100.00
2024-05-09T04:36:53.126Z,100.00
2024-05-09T04:42:21.014Z,100.00
2024-05-09T04:47:45.238Z,100.00
2024-05-09T04:53:12.435Z,100.00
2024-05-09T04:58:49.591Z,100.00
2024-05-09T05:04:11.392Z,100.00
2024-05-09T05:09:33.778Z,100.00
2024-05-09T05:14:56.078Z,100.00
2024-05-09T05:20:27.321Z,100.00
2024-05-09T05:25:43.015Z,100.00
2024-05-09T05:31:05.886Z,100.00
2024-05-09T05:36:28.659Z,100.00
2024-05-09T05:41:51.055Z,100.00
2024-05-09T05:47:13.667Z,100.00
2024-05-09T05:52:36.091Z,100.00
2024-05-09T05:57:58.581Z,100.00
2024-05-09T06:03:21.580Z,100.00
2024-05-09T06:08:44.774Z,100.00
2024-05-09T06:14:07.594Z,100.00
2024-05-09T06:19:31.388Z,100.00
2024-05-09T06:24:54.009Z,100.00
2024-05-09T06:30:25.769Z,100.00
2024-05-09T06:35:41.230Z,100.00
2024-05-09T06:41:04.551Z,100.00
2024-05-09T06:46:27.133Z,100.00
2024-05-09T06:51:52.398Z,100.00
2024-05-09T06:57:15.771Z,100.00
2024-05-09T07:02:38.421Z,100.00
2024-05-09T07:08:01.305Z,100.00
2024-05-09T07:13:26.041Z,100.00
2024-05-09T07:18:50.242Z,100.00
2024-05-09T07:24:12.724Z,100.00
2024-05-09T07:29:38.381Z,100.00
2024-05-09T07:34:59.890Z,100.00
2024-05-09T07:40:32.248Z,100.00
2024-05-09T07:45:52.784Z,100.00
2024-05-09T07:56:37.135Z,100.00
2024-05-09T08:02:00.157Z,100.00
2024-05-09T08:07:23.172Z,100.00
2024-05-09T08:12:45.601Z,100.00
2024-05-09T08:18:09.178Z,100.00
2024-05-09T08:23:32.647Z,100.00
2024-05-09T08:28:55.018Z,100.00
2024-05-09T08:34:17.540Z,100.00
2024-05-09T08:39:40.429Z,100.00
2024-05-09T08:45:04.393Z,100.00
2024-05-09T08:50:36.557Z,100.00
2024-05-09T08:55:53.714Z,100.00
2024-05-09T09:01:20.000Z,100.00
2024-05-09T09:06:45.462Z,100.00
2024-05-09T09:12:10.181Z,100.00
2024-05-09T09:17:36.064Z,100.00
2024-05-09T09:22:59.103Z,100.00
2024-05-09T09:28:22.330Z,100.00
2024-05-09T09:33:51.365Z,100.00
2024-05-09T09:39:16.079Z,100.00
2024-05-09T09:44:42.179Z,100.00
2024-05-09T09:50:09.534Z,100.00
2024-05-09T09:55:30.452Z,100.00
2024-05-09T10:00:53.103Z,100.00
2024-05-09T10:06:17.136Z,100.00
2024-05-09T10:11:49.023Z,100.00
2024-05-09T10:17:11.628Z,100.00
2024-05-09T10:22:42.104Z,100.00
2024-05-09T10:28:09.115Z,100.00
2024-05-09T10:33:32.867Z,100.00
2024-05-09T10:38:56.626Z,100.00
2024-05-09T10:44:26.378Z,100.00
2024-05-09T10:49:51.150Z,100.00
2024-05-09T10:55:14.533Z,100.00
2024-05-09T11:00:38.867Z,100.00
2024-05-09T11:06:04.806Z,100.00
2024-05-09T11:11:28.914Z,100.00
2024-05-09T11:16:51.792Z,100.00
2024-05-09T11:22:14.782Z,100.00
2024-05-09T11:27:54.887Z,100.00
2024-05-09T11:33:22.841Z,100.00
2024-05-09T11:38:47.063Z,100.00
2024-05-09T11:44:09.951Z,100.00
2024-05-09T11:49:32.991Z,100.00
2024-05-09T11:54:55.978Z,100.00
2024-05-09T12:00:29.068Z,100.00
2024-05-09T12:05:45.000Z,94.61
2024-05-09T12:11:08.710Z,81.67
2024-05-09T12:16:31.944Z,79.32
2024-05-09T12:21:55.189Z,66.82
2024-05-09T12:27:18.074Z,59.05
2024-05-09T12:32:41.198Z,55.53
2024-05-09T12:38:05.522Z,61.57
2024-05-09T12:43:28.404Z,62.24
2024-05-09T12:48:52.355Z,59.09
2024-05-09T12:54:15.454Z,62.23
2024-05-09T12:59:38.509Z,58.59
2024-05-09T13:05:01.653Z,49.13
2024-05-09T13:10:31.984Z,55.21
2024-05-09T13:15:52.268Z,46.84
2024-05-09T13:21:14.744Z,46.88
2024-05-09T13:26:37.685Z,49.07
2024-05-09T13:32:00.291Z,44.88
2024-05-09T13:37:22.779Z,50.41
2024-05-09T13:42:48.676Z,45.44
2024-05-09T13:48:10.544Z,43.98
2024-05-09T13:53:33.631Z,44.56
2024-05-09T13:58:56.175Z,46.27
2024-05-09T14:04:22.055Z,45.07
2024-05-09T14:09:44.801Z,43.77
2024-05-09T14:15:07.152Z,44.70
2024-05-09T14:20:31.952Z,47.14
2024-05-09T14:25:53.978Z,45.63
2024-05-09T14:31:16.713Z,40.31
2024-05-09T14:36:39.814Z,43.42
2024-05-09T14:42:09.782Z,41.17
2024-05-09T14:47:33.116Z,40.23
2024-05-09T14:52:55.710Z,39.56
2024-05-09T14:58:21.235Z,42.67
2024-05-09T15:03:44.923Z,40.24
2024-05-09T15:09:14.832Z,38.96
2024-05-09T15:14:37.784Z,38.37
2024-05-09T15:20:01.497Z,42.70
2024-05-09T15:25:24.147Z,37.82
2024-05-09T15:30:47.960Z,39.85
2024-05-09T15:36:10.861Z,41.09
2024-05-09T15:41:33.243Z,36.09
2024-05-09T15:46:56.351Z,34.27
2024-05-09T15:52:19.023Z,36.87
2024-05-09T15:57:41.422Z,37.64
2024-05-09T16:03:03.831Z,40.31
2024-05-09T16:08:26.744Z,39.27
2024-05-09T16:13:51.977Z,40.79
2024-05-09T16:19:14.435Z,41.52
2024-05-09T16:24:38.243Z,41.70
2024-05-09T16:30:04.112Z,42.55
2024-05-09T16:35:26.533Z,44.94
2024-05-09T16:40:49.265Z,44.88
2024-05-09T16:46:12.071Z,44.05
2024-05-09T16:51:34.704Z,45.52
2024-05-09T16:56:58.105Z,44.80
2024-05-09T17:02:21.087Z,48.42
2024-05-09T17:07:44.398Z,50.07
2024-05-09T17:13:08.057Z,46.03
2024-05-09T17:18:31.967Z,47.19
2024-05-09T17:23:55.833Z,50.49
2024-05-09T17:29:18.283Z,55.56
2024-05-09T17:34:40.667Z,61.49
2024-05-09T17:40:06.662Z,77.05
2024-05-09T17:45:27.013Z,79.70
2024-05-09T17:50:51.091Z,98.04
2024-05-09T17:56:14.326Z,100.00
2024-05-09T18:01:37.430Z,100.00
2024-05-09T18:07:00.742Z,100.00
2024-05-09T18:12:23.897Z,100.00
2024-05-09T18:17:47.787Z,100.00
2024-05-09T18:23:10.476Z,100.00
2024-05-09T18:28:33.495Z,100.00
2024-05-09T18:33:56.010Z,100.00
2024-05-09T18:39:18.944Z,100.00
2024-05-09T18:44:41.367Z,100.00
2024-05-09T18:50:05.928Z,100.00
2024-05-09T18:55:27.857Z,100.00
2024-05-09T19:00:53.330Z,100.00
2024-05-09T19:06:15.080Z,100.00
2024-05-09T19:11:39.886Z,100.00
2024-05-09T19:17:02.356Z,100.00
2024-05-09T19:22:25.312Z,100.00
2024-05-09T19:27:48.555Z,100.00
2024-05-09T19:33:12.977Z,100.00
2024-05-09T19:38:35.925Z,100.00
2024-05-09T19:43:58.402Z,100.00
2024-05-09T19:49:21.260Z,100.00
2024-05-09T19:54:45.809Z,100.00
2024-05-09T20:00:12.064Z,100.00
2024-05-09T20:05:33.292Z,100.00
2024-05-09T20:10:55.918Z,100.00
2024-05-09T20:16:19.407Z,100.00
2024-05-09T20:21:41.957Z,100.00
2024-05-09T20:27:04.541Z,100.00
2024-05-09T20:32:26.979Z,100.00
2024-05-09T20:37:49.325Z,100.00
2024-05-09T20:43:12.176Z,100.00
2024-05-09T20:48:34.826Z,100.00
2024-05-09T20:53:57.233Z,100.00
2024-05-09T20:59:19.595Z,100.00
2024-05-09T21:04:42.142Z,100.00
2024-05-09T21:10:10.160Z,100.00
2024-05-09T21:15:28.552Z,100.00
2024-05-09T21:20:50.872Z,100.00
2024-05-09T21:26:14.776Z,100.00
2024-05-09T21:31:37.949Z,100.00
2024-05-09T21:37:00.462Z,100.00
2024-05-09T21:42:22.895Z,100.00
2024-05-09T21:47:47.148Z,100.00
2024-05-09T21:53:09.726Z,100.00
2024-05-09T21:58:32.593Z,100.00
2024-05-09T22:03:56.253Z,100.00
2024-05-09T22:09:18.880Z,100.00
2024-05-09T22:14:41.171Z,100.00
2024-05-09T22:20:11.718Z,100.00
2024-05-09T22:25:30.898Z,100.00
2024-05-09T22:30:54.600Z,100.00
2024-05-09T22:36:18.576Z,100.00
2024-05-09T22:41:41.173Z,100.00
2024-05-09T22:47:03.507Z,100.00
2024-05-09T22:52:25.828Z,100.00
2024-05-09T22:57:49.116Z,100.00
2024-05-09T23:03:15.710Z,100.00
2024-05-09T23:08:38.547Z,100.00
2024-05-09T23:14:01.316Z,100.00
2024-05-09T23:19:23.904Z,100.00
2024-05-09T23:24:47.465Z,100.00
2024-05-09T23:30:12.520Z,100.00
2024-05-09T23:35:34.322Z,100.00
2024-05-09T23:40:57.039Z,100.00
2024-05-09T23:46:19.527Z,100.00
2024-05-09T23:51:41.920Z,100.00
2024-05-09T23:57:04.294Z,100.00
